sensor_id;sensor_type;location;lat;lon;timestamp;P1;durP1;ratioP1;P2;durP2;ratioP2
78925;SDS011;68321;51.276;7.208;2023-05-07T00:00:58;3.38;;;2.53;;
78925;SDS011;68321;51.276;7.208;2023-05-07T00:03:24;4.85;;;3.00;;
78925;SDS011;68321;51.276;7.208;2023-05-07T00:05:51;5.13;;;3.10;;
78925;SDS011;68321;51.276;7.208;2023-05-07T00:08:18;6.78;;;3.58;;
78925;SDS011;68321;51.276;7.208;2023-05-07T00:10:43;4.60;;;3.10;;
78925;SDS011;68321;51.276;7.208;2023-05-07T00:13:09;4.03;;;2.90;;
78925;SDS011;68321;51.276;7.208;2023-05-07T00:15:35;3.72;;;2.28;;
78925;SDS011;68321;51.276;7.208;2023-05-07T00:18:00;5.77;;;3.23;;
78925;SDS011;68321;51.276;7.208;2023-05-07T00:20:25;5.43;;;2.53;;
78925;SDS011;68321;51.276;7.208;2023-05-07T00:22:51;4.88;;;2.90;;
78925;SDS011;68321;51.276;7.208;2023-05-07T00:25:16;4.15;;;2.58;;
78925;SDS011;68321;51.276;7.208;2023-05-07T00:27:41;3.67;;;2.22;;
78925;SDS011;68321;51.276;7.208;2023-05-07T00:30:07;5.07;;;2.37;;
78925;SDS011;68321;51.276;7.208;2023-05-07T00:32:33;3.90;;;2.90;;
78925;SDS011;68321;51.276;7.208;2023-05-07T00:34:58;5.72;;;2.70;;
78925;SDS011;68321;51.276;7.208;2023-05-07T00:37:24;3.87;;;2.70;;
78925;SDS011;68321;51.276;7.208;2023-05-07T00:39:49;6.95;;;2.65;;
78925;SDS011;68321;51.276;7.208;2023-05-07T00:42:14;4.03;;;2.80;;
78925;SDS011;68321;51.276;7.208;2023-05-07T00:44:41;4.00;;;2.97;;
78925;SDS011;68321;51.276;7.208;2023-05-07T00:47:06;5.45;;;3.00;;
78925;SDS011;68321;51.276;7.208;2023-05-07T00:49:39;4.13;;;2.53;;
78925;SDS011;68321;51.276;7.208;2023-05-07T00:52:07;5.55;;;2.72;;
78925;SDS011;68321;51.276;7.208;2023-05-07T00:54:33;4.75;;;2.60;;
78925;SDS011;68321;51.276;7.208;2023-05-07T00:56:58;5.15;;;3.10;;
78925;SDS011;68321;51.276;7.208;2023-05-07T00:59:24;6.40;;;2.70;;
78925;SDS011;68321;51.276;7.208;2023-05-07T01:01:49;3.53;;;2.25;;
78925;SDS011;68321;51.276;7.208;2023-05-07T01:04:15;3.03;;;2.60;;
78925;SDS011;68321;51.276;7.208;2023-05-07T01:06:40;5.10;;;2.42;;
78925;SDS011;68321;51.276;7.208;2023-05-07T01:09:05;3.75;;;2.63;;
78925;SDS011;68321;51.276;7.208;2023-05-07T01:11:31;4.68;;;2.78;;
78925;SDS011;68321;51.276;7.208;2023-05-07T01:13:57;5.03;;;3.40;;
78925;SDS011;68321;51.276;7.208;2023-05-07T01:16:23;4.40;;;2.28;;
78925;SDS011;68321;51.276;7.208;2023-05-07T01:18:49;4.60;;;2.60;;
78925;SDS011;68321;51.276;7.208;2023-05-07T01:21:14;5.45;;;2.92;;
78925;SDS011;68321;51.276;7.208;2023-05-07T01:23:42;4.47;;;3.45;;
78925;SDS011;68321;51.276;7.208;2023-05-07T01:26:07;6.35;;;2.75;;
78925;SDS011;68321;51.276;7.208;2023-05-07T01:28:32;3.43;;;2.47;;
78925;SDS011;68321;51.276;7.208;2023-05-07T01:31:00;4.55;;;2.15;;
78925;SDS011;68321;51.276;7.208;2023-05-07T01:33:29;4.55;;;2.60;;
78925;SDS011;68321;51.276;7.208;2023-05-07T01:35:58;3.95;;;2.78;;
78925;SDS011;68321;51.276;7.208;2023-05-07T01:38:25;4.25;;;2.97;;
78925;SDS011;68321;51.276;7.208;2023-05-07T01:40:52;4.63;;;2.22;;
78925;SDS011;68321;51.276;7.208;2023-05-07T01:43:18;3.45;;;2.25;;
78925;SDS011;68321;51.276;7.208;2023-05-07T01:45:44;3.42;;;2.47;;
78925;SDS011;68321;51.276;7.208;2023-05-07T01:48:10;3.63;;;2.45;;
78925;SDS011;68321;51.276;7.208;2023-05-07T01:50:36;3.45;;;2.55;;
78925;SDS011;68321;51.276;7.208;2023-05-07T01:53:02;4.35;;;2.70;;
78925;SDS011;68321;51.276;7.208;2023-05-07T01:55:27;4.90;;;2.40;;
78925;SDS011;68321;51.276;7.208;2023-05-07T01:57:53;4.63;;;1.93;;
78925;SDS011;68321;51.276;7.208;2023-05-07T02:00:18;4.53;;;2.63;;
78925;SDS011;68321;51.276;7.208;2023-05-07T02:02:44;5.63;;;2.75;;
78925;SDS011;68321;51.276;7.208;2023-05-07T02:05:09;6.25;;;3.10;;
78925;SDS011;68321;51.276;7.208;2023-05-07T02:07:35;3.55;;;2.47;;
78925;SDS011;68321;51.276;7.208;2023-05-07T02:10:00;5.73;;;2.53;;
78925;SDS011;68321;51.276;7.208;2023-05-07T02:12:25;4.90;;;2.60;;
78925;SDS011;68321;51.276;7.208;2023-05-07T02:14:51;6.17;;;3.13;;
78925;SDS011;68321;51.276;7.208;2023-05-07T02:17:16;2.97;;;2.30;;
78925;SDS011;68321;51.276;7.208;2023-05-07T02:19:41;4.30;;;2.83;;
78925;SDS011;68321;51.276;7.208;2023-05-07T02:22:07;5.23;;;2.80;;
78925;SDS011;68321;51.276;7.208;2023-05-07T02:24:32;4.30;;;2.50;;
78925;SDS011;68321;51.276;7.208;2023-05-07T02:26:58;3.23;;;2.60;;
78925;SDS011;68321;51.276;7.208;2023-05-07T02:29:23;4.90;;;2.40;;
78925;SDS011;68321;51.276;7.208;2023-05-07T02:31:48;3.42;;;2.38;;
78925;SDS011;68321;51.276;7.208;2023-05-07T02:34:18;3.33;;;2.33;;
78925;SDS011;68321;51.276;7.208;2023-05-07T02:36:43;6.10;;;2.13;;
78925;SDS011;68321;51.276;7.208;2023-05-07T02:39:09;3.50;;;2.53;;
78925;SDS011;68321;51.276;7.208;2023-05-07T02:41:34;4.73;;;2.40;;
78925;SDS011;68321;51.276;7.208;2023-05-07T02:43:59;3.53;;;1.87;;
78925;SDS011;68321;51.276;7.208;2023-05-07T02:46:25;4.55;;;2.60;;
78925;SDS011;68321;51.276;7.208;2023-05-07T02:48:50;4.60;;;2.67;;
78925;SDS011;68321;51.276;7.208;2023-05-07T02:51:17;6.13;;;2.97;;
78925;SDS011;68321;51.276;7.208;2023-05-07T02:56:10;5.43;;;2.65;;
78925;SDS011;68321;51.276;7.208;2023-05-07T02:58:36;4.18;;;2.53;;
78925;SDS011;68321;51.276;7.208;2023-05-07T03:01:01;3.63;;;2.40;;
78925;SDS011;68321;51.276;7.208;2023-05-07T03:03:26;4.03;;;2.23;;
78925;SDS011;68321;51.276;7.208;2023-05-07T03:05:52;3.60;;;2.45;;
78925;SDS011;68321;51.276;7.208;2023-05-07T03:08:17;3.15;;;2.20;;
78925;SDS011;68321;51.276;7.208;2023-05-07T03:10:42;6.67;;;2.63;;
78925;SDS011;68321;51.276;7.208;2023-05-07T03:13:08;3.42;;;2.03;;
78925;SDS011;68321;51.276;7.208;2023-05-07T03:15:33;2.97;;;2.22;;
78925;SDS011;68321;51.276;7.208;2023-05-07T03:17:59;3.88;;;2.67;;
78925;SDS011;68321;51.276;7.208;2023-05-07T03:20:24;4.15;;;2.03;;
78925;SDS011;68321;51.276;7.208;2023-05-07T03:22:49;3.90;;;2.20;;
78925;SDS011;68321;51.276;7.208;2023-05-07T03:25:15;3.03;;;2.20;;
78925;SDS011;68321;51.276;7.208;2023-05-07T03:27:40;3.45;;;2.30;;
78925;SDS011;68321;51.276;7.208;2023-05-07T03:30:07;2.65;;;1.95;;
78925;SDS011;68321;51.276;7.208;2023-05-07T03:32:33;4.00;;;2.40;;
78925;SDS011;68321;51.276;7.208;2023-05-07T03:35:00;3.72;;;2.45;;
78925;SDS011;68321;51.276;7.208;2023-05-07T03:37:25;2.83;;;2.13;;
78925;SDS011;68321;51.276;7.208;2023-05-07T03:39:51;3.22;;;1.40;;
78925;SDS011;68321;51.276;7.208;2023-05-07T03:42:16;3.17;;;2.10;;
78925;SDS011;68321;51.276;7.208;2023-05-07T03:44:41;3.45;;;2.20;;
78925;SDS011;68321;51.276;7.208;2023-05-07T03:47:07;4.18;;;2.33;;
78925;SDS011;68321;51.276;7.208;2023-05-07T03:49:32;6.00;;;3.38;;
78925;SDS011;68321;51.276;7.208;2023-05-07T03:51:58;3.15;;;1.73;;
78925;SDS011;68321;51.276;7.208;2023-05-07T03:54:23;4.93;;;2.33;;
78925;SDS011;68321;51.276;7.208;2023-05-07T03:56:48;3.10;;;2.10;;
78925;SDS011;68321;51.276;7.208;2023-05-07T03:59:14;3.42;;;2.25;;
78925;SDS011;68321;51.276;7.208;2023-05-07T04:01:39;4.00;;;2.55;;
78925;SDS011;68321;51.276;7.208;2023-05-07T04:04:05;3.43;;;2.20;;
78925;SDS011;68321;51.276;7.208;2023-05-07T04:06:30;3.95;;;2.40;;
78925;SDS011;68321;51.276;7.208;2023-05-07T04:08:56;7.72;;;2.90;;
78925;SDS011;68321;51.276;7.208;2023-05-07T04:11:22;4.32;;;3.00;;
78925;SDS011;68321;51.276;7.208;2023-05-07T04:13:47;5.72;;;2.70;;
78925;SDS011;68321;51.276;7.208;2023-05-07T04:16:12;3.70;;;2.70;;
78925;SDS011;68321;51.276;7.208;2023-05-07T04:18:38;4.38;;;2.70;;
78925;SDS011;68321;51.276;7.208;2023-05-07T04:21:03;4.32;;;2.53;;
78925;SDS011;68321;51.276;7.208;2023-05-07T04:23:29;4.07;;;2.55;;
78925;SDS011;68321;51.276;7.208;2023-05-07T04:25:54;3.65;;;2.30;;
78925;SDS011;68321;51.276;7.208;2023-05-07T04:28:20;4.68;;;3.03;;
78925;SDS011;68321;51.276;7.208;2023-05-07T04:30:45;3.70;;;2.53;;
78925;SDS011;68321;51.276;7.208;2023-05-07T04:33:10;5.60;;;2.67;;
78925;SDS011;68321;51.276;7.208;2023-05-07T04:35:36;6.70;;;2.83;;
78925;SDS011;68321;51.276;7.208;2023-05-07T04:38:02;3.53;;;2.30;;
78925;SDS011;68321;51.276;7.208;2023-05-07T04:40:27;4.40;;;2.45;;
78925;SDS011;68321;51.276;7.208;2023-05-07T04:42:52;5.67;;;2.50;;
78925;SDS011;68321;51.276;7.208;2023-05-07T04:45:18;3.65;;;3.15;;
78925;SDS011;68321;51.276;7.208;2023-05-07T04:47:43;6.18;;;2.63;;
78925;SDS011;68321;51.276;7.208;2023-05-07T04:50:09;6.47;;;2.83;;
78925;SDS011;68321;51.276;7.208;2023-05-07T04:52:35;4.85;;;2.63;;
78925;SDS011;68321;51.276;7.208;2023-05-07T04:55:01;8.18;;;3.10;;
78925;SDS011;68321;51.276;7.208;2023-05-07T04:57:26;4.20;;;2.42;;
78925;SDS011;68321;51.276;7.208;2023-05-07T04:59:52;3.78;;;2.72;;
78925;SDS011;68321;51.276;7.208;2023-05-07T05:02:18;5.32;;;2.92;;
78925;SDS011;68321;51.276;7.208;2023-05-07T05:04:43;4.03;;;2.83;;
78925;SDS011;68321;51.276;7.208;2023-05-07T05:07:08;6.40;;;2.73;;
78925;SDS011;68321;51.276;7.208;2023-05-07T05:09:34;4.10;;;2.60;;
78925;SDS011;68321;51.276;7.208;2023-05-07T05:11:59;6.37;;;3.20;;
78925;SDS011;68321;51.276;7.208;2023-05-07T05:14:24;4.03;;;3.03;;
78925;SDS011;68321;51.276;7.208;2023-05-07T05:16:50;6.07;;;2.97;;
78925;SDS011;68321;51.276;7.208;2023-05-07T05:19:15;3.30;;;2.63;;
78925;SDS011;68321;51.276;7.208;2023-05-07T05:21:41;4.32;;;2.90;;
78925;SDS011;68321;51.276;7.208;2023-05-07T05:24:06;6.87;;;3.33;;
78925;SDS011;68321;51.276;7.208;2023-05-07T05:26:32;5.35;;;2.65;;
78925;SDS011;68321;51.276;7.208;2023-05-07T05:28:57;4.57;;;2.63;;
78925;SDS011;68321;51.276;7.208;2023-05-07T05:31:22;6.17;;;3.00;;
78925;SDS011;68321;51.276;7.208;2023-05-07T05:33:47;3.97;;;3.37;;
78925;SDS011;68321;51.276;7.208;2023-05-07T05:36:13;7.27;;;3.30;;
78925;SDS011;68321;51.276;7.208;2023-05-07T05:38:39;4.95;;;2.97;;
78925;SDS011;68321;51.276;7.208;2023-05-07T05:41:04;3.50;;;2.67;;
78925;SDS011;68321;51.276;7.208;2023-05-07T05:43:30;3.85;;;2.38;;
78925;SDS011;68321;51.276;7.208;2023-05-07T05:45:55;5.90;;;2.70;;
78925;SDS011;68321;51.276;7.208;2023-05-07T05:48:21;6.18;;;3.03;;
78925;SDS011;68321;51.276;7.208;2023-05-07T05:50:47;4.25;;;3.00;;
78925;SDS011;68321;51.276;7.208;2023-05-07T05:53:13;4.90;;;3.28;;
78925;SDS011;68321;51.276;7.208;2023-05-07T05:55:38;4.32;;;2.65;;
78925;SDS011;68321;51.276;7.208;2023-05-07T05:58:04;5.80;;;2.97;;
78925;SDS011;68321;51.276;7.208;2023-05-07T06:00:29;3.70;;;2.67;;
78925;SDS011;68321;51.276;7.208;2023-05-07T06:02:55;5.18;;;2.38;;
78925;SDS011;68321;51.276;7.208;2023-05-07T06:05:20;5.88;;;2.88;;
78925;SDS011;68321;51.276;7.208;2023-05-07T06:07:45;5.07;;;2.72;;
78925;SDS011;68321;51.276;7.208;2023-05-07T06:10:11;3.63;;;2.50;;
78925;SDS011;68321;51.276;7.208;2023-05-07T06:12:36;5.63;;;2.55;;
78925;SDS011;68321;51.276;7.208;2023-05-07T06:15:02;4.17;;;2.67;;
78925;SDS011;68321;51.276;7.208;2023-05-07T06:17:27;4.25;;;2.30;;
78925;SDS011;68321;51.276;7.208;2023-05-07T06:19:53;3.97;;;2.73;;
78925;SDS011;68321;51.276;7.208;2023-05-07T06:22:18;4.00;;;2.13;;
78925;SDS011;68321;51.276;7.208;2023-05-07T06:24:44;4.18;;;2.63;;
78925;SDS011;68321;51.276;7.208;2023-05-07T06:27:09;3.47;;;2.45;;
78925;SDS011;68321;51.276;7.208;2023-05-07T06:29:34;7.65;;;2.40;;
78925;SDS011;68321;51.276;7.208;2023-05-07T06:32:10;7.80;;;2.50;;
78925;SDS011;68321;51.276;7.208;2023-05-07T06:34:36;3.97;;;2.70;;
78925;SDS011;68321;51.276;7.208;2023-05-07T06:37:02;4.53;;;2.80;;
78925;SDS011;68321;51.276;7.208;2023-05-07T06:39:27;5.05;;;2.38;;
78925;SDS011;68321;51.276;7.208;2023-05-07T06:41:53;4.27;;;2.50;;
78925;SDS011;68321;51.276;7.208;2023-05-07T06:44:18;3.65;;;2.42;;
78925;SDS011;68321;51.276;7.208;2023-05-07T06:46:43;4.30;;;2.30;;
78925;SDS011;68321;51.276;7.208;2023-05-07T06:49:09;2.87;;;2.03;;
78925;SDS011;68321;51.276;7.208;2023-05-07T06:51:34;4.63;;;2.00;;
78925;SDS011;68321;51.276;7.208;2023-05-07T06:53:59;3.42;;;1.83;;
78925;SDS011;68321;51.276;7.208;2023-05-07T06:56:25;6.40;;;2.47;;
78925;SDS011;68321;51.276;7.208;2023-05-07T06:58:50;4.20;;;2.50;;
78925;SDS011;68321;51.276;7.208;2023-05-07T07:01:15;3.90;;;2.10;;
78925;SDS011;68321;51.276;7.208;2023-05-07T07:03:41;4.37;;;1.83;;
78925;SDS011;68321;51.276;7.208;2023-05-07T07:06:06;3.87;;;2.27;;
78925;SDS011;68321;51.276;7.208;2023-05-07T07:08:31;4.50;;;2.00;;
78925;SDS011;68321;51.276;7.208;2023-05-07T07:10:57;3.55;;;2.08;;
78925;SDS011;68321;51.276;7.208;2023-05-07T07:13:23;3.33;;;2.13;;
78925;SDS011;68321;51.276;7.208;2023-05-07T07:15:48;3.05;;;2.75;;
78925;SDS011;68321;51.276;7.208;2023-05-07T07:18:13;3.83;;;1.90;;
78925;SDS011;68321;51.276;7.208;2023-05-07T07:20:39;2.78;;;1.90;;
78925;SDS011;68321;51.276;7.208;2023-05-07T07:23:04;4.97;;;2.97;;
78925;SDS011;68321;51.276;7.208;2023-05-07T07:25:29;4.60;;;1.95;;
78925;SDS011;68321;51.276;7.208;2023-05-07T07:27:55;4.00;;;2.00;;
78925;SDS011;68321;51.276;7.208;2023-05-07T07:30:20;3.20;;;1.80;;
78925;SDS011;68321;51.276;7.208;2023-05-07T07:32:45;2.17;;;1.52;;
78925;SDS011;68321;51.276;7.208;2023-05-07T07:35:11;3.03;;;2.20;;
78925;SDS011;68321;51.276;7.208;2023-05-07T07:37:36;4.18;;;2.33;;
78925;SDS011;68321;51.276;7.208;2023-05-07T07:40:01;4.07;;;1.73;;
78925;SDS011;68321;51.276;7.208;2023-05-07T07:42:28;3.20;;;1.88;;
78925;SDS011;68321;51.276;7.208;2023-05-07T07:44:54;3.33;;;1.95;;
78925;SDS011;68321;51.276;7.208;2023-05-07T07:47:19;3.70;;;1.80;;
78925;SDS011;68321;51.276;7.208;2023-05-07T07:49:44;3.10;;;2.10;;
78925;SDS011;68321;51.276;7.208;2023-05-07T07:52:10;5.00;;;2.60;;
78925;SDS011;68321;51.276;7.208;2023-05-07T07:54:35;4.47;;;1.67;;
78925;SDS011;68321;51.276;7.208;2023-05-07T07:57:00;3.97;;;1.70;;
78925;SDS011;68321;51.276;7.208;2023-05-07T07:59:26;3.90;;;1.73;;
78925;SDS011;68321;51.276;7.208;2023-05-07T08:01:52;3.75;;;1.83;;
78925;SDS011;68321;51.276;7.208;2023-05-07T08:04:20;4.43;;;1.92;;
78925;SDS011;68321;51.276;7.208;2023-05-07T08:06:46;3.03;;;1.77;;
78925;SDS011;68321;51.276;7.208;2023-05-07T08:09:11;5.70;;;3.33;;
78925;SDS011;68321;51.276;7.208;2023-05-07T08:11:36;3.35;;;1.73;;
78925;SDS011;68321;51.276;7.208;2023-05-07T08:14:02;3.10;;;1.85;;
78925;SDS011;68321;51.276;7.208;2023-05-07T08:16:28;2.40;;;1.80;;
78925;SDS011;68321;51.276;7.208;2023-05-07T08:18:53;4.18;;;2.00;;
78925;SDS011;68321;51.276;7.208;2023-05-07T08:21:19;4.03;;;1.75;;
78925;SDS011;68321;51.276;7.208;2023-05-07T08:23:45;2.58;;;1.73;;
78925;SDS011;68321;51.276;7.208;2023-05-07T08:26:11;4.65;;;1.98;;
78925;SDS011;68321;51.276;7.208;2023-05-07T08:28:36;3.38;;;1.75;;
78925;SDS011;68321;51.276;7.208;2023-05-07T08:31:02;1.97;;;1.40;;
78925;SDS011;68321;51.276;7.208;2023-05-07T08:33:27;3.10;;;1.60;;
78925;SDS011;68321;51.276;7.208;2023-05-07T08:35:52;3.25;;;1.52;;
78925;SDS011;68321;51.276;7.208;2023-05-07T08:38:18;3.00;;;1.80;;
78925;SDS011;68321;51.276;7.208;2023-05-07T08:40:43;5.87;;;1.93;;
78925;SDS011;68321;51.276;7.208;2023-05-07T08:43:09;3.05;;;1.35;;
78925;SDS011;68321;51.276;7.208;2023-05-07T08:45:37;3.10;;;1.50;;
78925;SDS011;68321;51.276;7.208;2023-05-07T08:48:05;3.95;;;2.88;;
78925;SDS011;68321;51.276;7.208;2023-05-07T08:50:37;3.78;;;1.60;;
78925;SDS011;68321;51.276;7.208;2023-05-07T08:53:03;2.55;;;1.30;;
78925;SDS011;68321;51.276;7.208;2023-05-07T08:55:29;2.47;;;1.25;;
78925;SDS011;68321;51.276;7.208;2023-05-07T08:57:55;3.80;;;1.55;;
78925;SDS011;68321;51.276;7.208;2023-05-07T09:00:20;3.17;;;1.67;;
78925;SDS011;68321;51.276;7.208;2023-05-07T09:02:45;2.83;;;1.60;;
78925;SDS011;68321;51.276;7.208;2023-05-07T09:05:11;3.85;;;2.05;;
78925;SDS011;68321;51.276;7.208;2023-05-07T09:07:36;3.47;;;1.30;;
78925;SDS011;68321;51.276;7.208;2023-05-07T09:10:05;3.27;;;1.63;;
78925;SDS011;68321;51.276;7.208;2023-05-07T09:12:31;3.03;;;1.52;;
78925;SDS011;68321;51.276;7.208;2023-05-07T09:14:56;2.95;;;1.48;;
78925;SDS011;68321;51.276;7.208;2023-05-07T09:17:22;2.17;;;1.30;;
78925;SDS011;68321;51.276;7.208;2023-05-07T09:19:47;2.50;;;1.33;;
78925;SDS011;68321;51.276;7.208;2023-05-07T09:22:12;5.13;;;2.38;;
78925;SDS011;68321;51.276;7.208;2023-05-07T09:24:38;3.92;;;1.90;;
78925;SDS011;68321;51.276;7.208;2023-05-07T09:27:04;3.03;;;1.83;;
78925;SDS011;68321;51.276;7.208;2023-05-07T09:29:30;1.98;;;1.08;;
78925;SDS011;68321;51.276;7.208;2023-05-07T09:32:00;2.97;;;1.52;;
78925;SDS011;68321;51.276;7.208;2023-05-07T09:34:32;3.03;;;1.17;;
78925;SDS011;68321;51.276;7.208;2023-05-07T09:37:03;2.40;;;1.20;;
78925;SDS011;68321;51.276;7.208;2023-05-07T09:39:46;4.55;;;1.17;;
78925;SDS011;68321;51.276;7.208;2023-05-07T09:42:12;3.22;;;1.23;;
78925;SDS011;68321;51.276;7.208;2023-05-07T09:44:39;2.72;;;1.40;;
78925;SDS011;68321;51.276;7.208;2023-05-07T09:47:05;3.00;;;1.50;;
78925;SDS011;68321;51.276;7.208;2023-05-07T09:49:33;5.22;;;1.85;;
78925;SDS011;68321;51.276;7.208;2023-05-07T09:52:01;3.88;;;2.60;;
78925;SDS011;68321;51.276;7.208;2023-05-07T09:54:26;2.92;;;1.60;;
78925;SDS011;68321;51.276;7.208;2023-05-07T09:56:54;4.15;;;1.70;;
78925;SDS011;68321;51.276;7.208;2023-05-07T09:59:19;2.70;;;1.40;;
78925;SDS011;68321;51.276;7.208;2023-05-07T10:01:45;1.65;;;0.93;;
78925;SDS011;68321;51.276;7.208;2023-05-07T10:04:11;4.90;;;1.25;;
78925;SDS011;68321;51.276;7.208;2023-05-07T10:06:37;2.03;;;1.10;;
78925;SDS011;68321;51.276;7.208;2023-05-07T10:09:03;2.42;;;1.73;;
78925;SDS011;68321;51.276;7.208;2023-05-07T10:11:30;3.10;;;1.25;;
78925;SDS011;68321;51.276;7.208;2023-05-07T10:13:57;1.52;;;0.85;;
78925;SDS011;68321;51.276;7.208;2023-05-07T10:16:23;1.83;;;1.20;;
78925;SDS011;68321;51.276;7.208;2023-05-07T10:18:49;2.85;;;1.33;;
78925;SDS011;68321;51.276;7.208;2023-05-07T10:21:18;4.00;;;1.30;;
78925;SDS011;68321;51.276;7.208;2023-05-07T10:23:44;3.05;;;1.30;;
78925;SDS011;68321;51.276;7.208;2023-05-07T10:26:11;5.78;;;3.15;;
78925;SDS011;68321;51.276;7.208;2023-05-07T10:28:38;2.97;;;1.58;;
78925;SDS011;68321;51.276;7.208;2023-05-07T10:31:08;3.85;;;1.30;;
78925;SDS011;68321;51.276;7.208;2023-05-07T10:33:38;3.75;;;1.48;;
78925;SDS011;68321;51.276;7.208;2023-05-07T10:36:04;4.38;;;2.13;;
78925;SDS011;68321;51.276;7.208;2023-05-07T10:38:30;4.18;;;2.05;;
78925;SDS011;68321;51.276;7.208;2023-05-07T10:40:56;3.30;;;1.95;;
78925;SDS011;68321;51.276;7.208;2023-05-07T10:43:21;3.50;;;1.58;;
78925;SDS011;68321;51.276;7.208;2023-05-07T10:48:35;2.95;;;1.73;;
78925;SDS011;68321;51.276;7.208;2023-05-07T10:51:27;3.60;;;1.98;;
78925;SDS011;68321;51.276;7.208;2023-05-07T10:56:36;3.45;;;2.10;;
78925;SDS011;68321;51.276;7.208;2023-05-07T11:01:55;3.58;;;1.50;;
78925;SDS011;68321;51.276;7.208;2023-05-07T11:04:27;4.03;;;1.60;;
78925;SDS011;68321;51.276;7.208;2023-05-07T11:12:17;4.43;;;1.60;;
78925;SDS011;68321;51.276;7.208;2023-05-07T11:15:06;4.28;;;1.83;;
78925;SDS011;68321;51.276;7.208;2023-05-07T11:17:33;2.85;;;1.52;;
78925;SDS011;68321;51.276;7.208;2023-05-07T11:19:59;4.57;;;2.00;;
78925;SDS011;68321;51.276;7.208;2023-05-07T11:25:05;4.65;;;2.20;;
78925;SDS011;68321;51.276;7.208;2023-05-07T11:27:31;2.75;;;1.95;;
78925;SDS011;68321;51.276;7.208;2023-05-07T11:29:57;3.08;;;1.92;;
78925;SDS011;68321;51.276;7.208;2023-05-07T11:32:23;4.30;;;1.80;;
78925;SDS011;68321;51.276;7.208;2023-05-07T11:34:52;2.88;;;1.90;;
78925;SDS011;68321;51.276;7.208;2023-05-07T11:37:19;2.72;;;1.90;;
78925;SDS011;68321;51.276;7.208;2023-05-07T11:39:44;4.88;;;1.75;;
78925;SDS011;68321;51.276;7.208;2023-05-07T11:44:52;4.18;;;1.95;;
78925;SDS011;68321;51.276;7.208;2023-05-07T11:47:18;2.93;;;1.80;;
78925;SDS011;68321;51.276;7.208;2023-05-07T11:49:46;2.70;;;2.03;;
78925;SDS011;68321;51.276;7.208;2023-05-07T11:52:13;3.85;;;1.83;;
78925;SDS011;68321;51.276;7.208;2023-05-07T11:54:38;2.92;;;1.75;;
78925;SDS011;68321;51.276;7.208;2023-05-07T11:57:04;4.40;;;2.10;;
78925;SDS011;68321;51.276;7.208;2023-05-07T11:59:30;5.60;;;2.40;;
78925;SDS011;68321;51.276;7.208;2023-05-07T12:02:03;4.03;;;1.65;;
78925;SDS011;68321;51.276;7.208;2023-05-07T12:04:29;3.30;;;1.83;;
78925;SDS011;68321;51.276;7.208;2023-05-07T12:06:55;3.03;;;2.30;;
78925;SDS011;68321;51.276;7.208;2023-05-07T12:09:20;5.75;;;2.00;;
78925;SDS011;68321;51.276;7.208;2023-05-07T12:11:46;5.20;;;2.55;;
78925;SDS011;68321;51.276;7.208;2023-05-07T12:14:11;3.75;;;2.80;;
78925;SDS011;68321;51.276;7.208;2023-05-07T12:16:37;6.30;;;2.45;;
78925;SDS011;68321;51.276;7.208;2023-05-07T12:19:05;5.85;;;2.60;;
78925;SDS011;68321;51.276;7.208;2023-05-07T12:21:33;3.15;;;2.20;;
78925;SDS011;68321;51.276;7.208;2023-05-07T12:23:59;6.07;;;3.08;;
78925;SDS011;68321;51.276;7.208;2023-05-07T12:26:24;4.87;;;2.70;;
78925;SDS011;68321;51.276;7.208;2023-05-07T12:28:49;4.25;;;2.53;;
78925;SDS011;68321;51.276;7.208;2023-05-07T12:31:15;4.28;;;2.83;;
78925;SDS011;68321;51.276;7.208;2023-05-07T12:33:41;4.50;;;2.88;;
78925;SDS011;68321;51.276;7.208;2023-05-07T12:36:07;6.50;;;3.53;;
78925;SDS011;68321;51.276;7.208;2023-05-07T12:38:36;5.93;;;3.50;;
78925;SDS011;68321;51.276;7.208;2023-05-07T12:41:02;5.45;;;3.20;;
78925;SDS011;68321;51.276;7.208;2023-05-07T12:43:28;5.05;;;3.58;;
78925;SDS011;68321;51.276;7.208;2023-05-07T12:45:54;6.63;;;4.05;;
78925;SDS011;68321;51.276;7.208;2023-05-07T12:48:21;6.28;;;3.92;;
78925;SDS011;68321;51.276;7.208;2023-05-07T12:50:52;6.93;;;3.88;;
78925;SDS011;68321;51.276;7.208;2023-05-07T12:53:20;8.50;;;4.68;;
78925;SDS011;68321;51.276;7.208;2023-05-07T12:55:47;7.47;;;5.75;;
78925;SDS011;68321;51.276;7.208;2023-05-07T13:03:08;6.85;;;4.75;;
78925;SDS011;68321;51.276;7.208;2023-05-07T13:05:34;6.72;;;4.72;;
78925;SDS011;68321;51.276;7.208;2023-05-07T13:07:59;5.68;;;4.05;;
78925;SDS011;68321;51.276;7.208;2023-05-07T13:10:25;6.18;;;3.58;;
78925;SDS011;68321;51.276;7.208;2023-05-07T13:12:52;6.05;;;3.47;;
78925;SDS011;68321;51.276;7.208;2023-05-07T13:15:17;4.33;;;2.47;;
78925;SDS011;68321;51.276;7.208;2023-05-07T13:17:43;4.90;;;2.83;;
78925;SDS011;68321;51.276;7.208;2023-05-07T13:20:09;4.63;;;1.98;;
78925;SDS011;68321;51.276;7.208;2023-05-07T13:22:34;3.65;;;2.83;;
78925;SDS011;68321;51.276;7.208;2023-05-07T13:25:00;3.13;;;2.20;;
78925;SDS011;68321;51.276;7.208;2023-05-07T13:27:25;5.85;;;2.17;;
78925;SDS011;68321;51.276;7.208;2023-05-07T13:29:51;3.57;;;1.77;;
78925;SDS011;68321;51.276;7.208;2023-05-07T13:32:16;4.18;;;2.33;;
78925;SDS011;68321;51.276;7.208;2023-05-07T13:34:42;2.92;;;1.75;;
78925;SDS011;68321;51.276;7.208;2023-05-07T13:37:07;2.73;;;1.60;;
78925;SDS011;68321;51.276;7.208;2023-05-07T13:39:32;2.72;;;1.45;;
78925;SDS011;68321;51.276;7.208;2023-05-07T13:41:58;3.10;;;1.33;;
78925;SDS011;68321;51.276;7.208;2023-05-07T13:44:23;2.40;;;1.80;;
78925;SDS011;68321;51.276;7.208;2023-05-07T13:46:48;2.30;;;1.77;;
78925;SDS011;68321;51.276;7.208;2023-05-07T13:49:14;4.65;;;1.95;;
78925;SDS011;68321;51.276;7.208;2023-05-07T13:51:39;3.90;;;1.98;;
78925;SDS011;68321;51.276;7.208;2023-05-07T13:54:05;6.35;;;3.85;;
78925;SDS011;68321;51.276;7.208;2023-05-07T13:56:30;5.20;;;2.28;;
78925;SDS011;68321;51.276;7.208;2023-05-07T13:58:57;5.00;;;2.58;;
78925;SDS011;68321;51.276;7.208;2023-05-07T14:01:22;3.47;;;2.20;;
78925;SDS011;68321;51.276;7.208;2023-05-07T14:03:48;6.90;;;3.10;;
78925;SDS011;68321;51.276;7.208;2023-05-07T14:06:13;4.00;;;2.73;;
78925;SDS011;68321;51.276;7.208;2023-05-07T14:08:38;4.23;;;3.00;;
78925;SDS011;68321;51.276;7.208;2023-05-07T14:11:04;5.13;;;3.25;;
78925;SDS011;68321;51.276;7.208;2023-05-07T14:13:29;4.17;;;3.17;;
78925;SDS011;68321;51.276;7.208;2023-05-07T14:15:55;5.45;;;4.13;;
78925;SDS011;68321;51.276;7.208;2023-05-07T14:18:21;6.40;;;4.38;;
78925;SDS011;68321;51.276;7.208;2023-05-07T14:20:46;9.30;;;5.43;;
78925;SDS011;68321;51.276;7.208;2023-05-07T14:23:13;7.57;;;5.22;;
78925;SDS011;68321;51.276;7.208;2023-05-07T14:25:39;10.07;;;6.65;;
78925;SDS011;68321;51.276;7.208;2023-05-07T14:28:04;10.48;;;6.68;;
78925;SDS011;68321;51.276;7.208;2023-05-07T14:30:30;9.45;;;6.95;;
78925;SDS011;68321;51.276;7.208;2023-05-07T14:32:55;10.20;;;7.40;;
78925;SDS011;68321;51.276;7.208;2023-05-07T14:35:20;10.30;;;7.23;;
78925;SDS011;68321;51.276;7.208;2023-05-07T14:37:46;8.73;;;6.33;;
78925;SDS011;68321;51.276;7.208;2023-05-07T14:40:11;8.37;;;5.70;;
78925;SDS011;68321;51.276;7.208;2023-05-07T14:42:37;7.50;;;5.60;;
78925;SDS011;68321;51.276;7.208;2023-05-07T14:45:02;8.47;;;6.07;;
78925;SDS011;68321;51.276;7.208;2023-05-07T14:47:28;8.95;;;5.25;;
78925;SDS011;68321;51.276;7.208;2023-05-07T14:49:53;8.27;;;5.73;;
78925;SDS011;68321;51.276;7.208;2023-05-07T14:52:19;8.00;;;5.90;;
78925;SDS011;68321;51.276;7.208;2023-05-07T14:54:44;7.78;;;4.85;;
78925;SDS011;68321;51.276;7.208;2023-05-07T14:57:10;6.95;;;4.90;;
78925;SDS011;68321;51.276;7.208;2023-05-07T14:59:38;8.63;;;6.50;;
78925;SDS011;68321;51.276;7.208;2023-05-07T15:02:03;7.55;;;4.85;;
78925;SDS011;68321;51.276;7.208;2023-05-07T15:04:30;6.32;;;4.68;;
78925;SDS011;68321;51.276;7.208;2023-05-07T15:06:55;7.33;;;5.77;;